Time;durP1;ratioP1;P1;durP2;ratioP2;P2;SDS_P1;SDS_P2;PMS_P1;PMS_P2;Temp;Humidity;BMP_temperature;BMP_pressure;BME280_temperature;BME280_humidity;BME280_pressure;Samples;Min_cycle;Max_cycle;Signal;HPM_P1;HPM_P2
2021/10/08 00:01:10;;;;;;;0.00;0.00;;;;;;;11.79;80.98;99629.50;4919045;29;20028;-77
2021/10/08 00:03:36;;;;;;;0.05;0.05;;;;;;;11.80;81.22;99628.44;4936742;29;20498;-78
2021/10/08 00:06:01;;;;;;;0.15;0.15;;;;;;;11.79;80.95;99621.47;4919057;29;20403;-80
2021/10/08 00:08:27;;;;;;;0.00;0.00;;;;;;;11.79;81.22;99626.00;4919009;29;20499;-82
2021/10/08 00:10:52;;;;;;;0.00;0.00;;;;;;;11.74;80.86;99613.41;4918968;29;20083;-77
2021/10/08 00:13:18;;;;;;;0.00;0.00;;;;;;;11.78;81.66;99611.81;4919021;29;20035;-78
2021/10/08 00:15:43;;;;;;;0.00;0.00;;;;;;;11.78;81.43;99611.81;4935695;29;20046;-76
2021/10/08 00:18:08;;;;;;;0.00;0.00;;;;;;;11.76;81.51;99608.59;4935911;29;20038;-76
2021/10/08 00:20:34;;;;;;;0.10;0.10;;;;;;;11.73;80.96;99611.00;4935684;29;20035;-76
2021/10/08 00:23:01;;;;;;;0.00;0.00;;;;;;;11.73;81.55;99614.50;4935685;29;20063;-76
2021/10/08 00:25:27;;;;;;;0.08;0.08;;;;;;;11.67;81.52;99612.91;4935978;29;20114;-76
2021/10/08 00:27:52;;;;;;;0.00;0.00;;;;;;;11.68;81.61;99617.97;4918498;29;20038;-76
2021/10/08 00:30:18;;;;;;;0.35;0.35;;;;;;;11.69;81.29;99616.91;4935374;29;20035;-79
2021/10/08 00:32:43;;;;;;;0.00;0.00;;;;;;;11.68;81.21;99617.97;4918876;29;20463;-77
2021/10/08 00:35:08;;;;;;;0.10;0.10;;;;;;;11.68;81.53;99611.81;4918185;29;20046;-80
2021/10/08 00:37:34;;;;;;;0.10;0.10;;;;;;;11.67;81.69;99615.56;4918876;29;20046;-81
2021/10/08 00:39:59;;;;;;;0.05;0.05;;;;;;;11.64;81.88;99614.22;4918243;29;20525;-78
2021/10/08 00:42:26;;;;;;;0.35;0.35;;;;;;;11.63;81.55;99604.59;4950425;29;20031;-79
2021/10/08 00:44:53;;;;;;;0.10;0.10;;;;;;;11.61;81.84;99595.19;4950493;29;20379;-77
2021/10/08 00:47:19;;;;;;;0.00;0.00;;;;;;;11.61;81.87;99606.72;4949871;29;20027;-79
2021/10/08 00:49:44;;;;;;;0.30;0.30;;;;;;;11.60;82.26;99602.44;4918124;29;20039;-78
2021/10/08 00:52:10;;;;;;;0.00;0.00;;;;;;;11.59;81.78;99600.03;4935664;29;20031;-78
2021/10/08 00:54:35;;;;;;;0.03;0.03;;;;;;;11.58;82.09;99595.75;4918387;29;20086;-78
2021/10/08 00:57:01;;;;;;;0.00;0.00;;;;;;;11.55;82.16;99594.41;4934792;29;20102;-78
2021/10/08 00:59:27;;;;;;;0.40;0.40;;;;;;;11.55;82.40;99597.09;4935593;29;20539;-79
2021/10/08 01:01:52;;;;;;;0.00;0.00;;;;;;;11.54;82.62;99584.75;4918247;29;20027;-77
2021/10/08 01:04:20;;;;;;;0.63;0.40;;;;;;;11.53;82.69;99594.69;4918220;29;20040;-77
2021/10/08 01:06:45;;;;;;;0.00;0.00;;;;;;;11.53;83.33;99592.00;4935520;29;20023;-78
2021/10/08 01:09:10;;;;;;;0.00;0.00;;;;;;;11.52;82.67;99587.72;4917103;29;20039;-78
2021/10/08 01:11:36;;;;;;;0.10;0.10;;;;;;;11.53;82.79;99586.66;4918083;29;20032;-78
2021/10/08 01:14:03;;;;;;;0.00;0.00;;;;;;;11.50;82.73;99573.78;4917889;29;20032;-78
2021/10/08 01:16:28;;;;;;;0.00;0.00;;;;;;;11.50;83.04;99571.09;4917725;29;20665;-77
2021/10/08 01:18:54;;;;;;;0.95;0.95;;;;;;;11.49;83.01;99574.84;4917470;29;20047;-80
2021/10/08 01:21:19;;;;;;;0.05;0.05;;;;;;;11.50;82.95;99573.00;4917619;29;20035;-78
2021/10/08 01:23:46;;;;;;;10.55;1.00;;;;;;;11.46;83.45;99572.72;4917521;29;20035;-77
2021/10/08 01:26:12;;;;;;;0.10;0.10;;;;;;;11.48;83.12;99575.13;4931614;29;20032;-78
2021/10/08 01:28:37;;;;;;;0.10;0.10;;;;;;;11.46;83.50;99571.91;4917012;29;20064;-80
2021/10/08 01:31:04;;;;;;;0.00;0.00;;;;;;;11.45;83.38;99572.97;4917394;29;20032;-80
2021/10/08 01:33:29;;;;;;;0.10;0.10;;;;;;;11.44;83.30;99569.50;4917566;29;20167;-79
2021/10/08 01:35:55;;;;;;;0.03;0.03;;;;;;;11.42;83.49;99560.94;4917575;29;20106;-79
2021/10/08 01:38:20;;;;;;;0.00;0.00;;;;;;;11.43;83.69;99561.75;4916768;29;20031;-87
2021/10/08 01:40:46;;;;;;;0.00;0.00;;;;;;;11.41;83.99;99561.19;4917463;29;20035;-88
2021/10/08 01:43:11;;;;;;;0.00;0.00;;;;;;;11.36;84.04;99549.44;4917319;29;20038;-89
2021/10/08 01:45:36;;;;;;;0.15;0.15;;;;;;;11.37;84.28;99561.72;4917234;29;20087;-85
2021/10/08 01:48:02;;;;;;;0.10;0.10;;;;;;;11.37;84.39;99555.59;4916881;29;20035;-89
2021/10/08 01:50:28;;;;;;;0.00;0.00;;;;;;;11.36;84.26;99552.09;4917131;29;20044;-90
2021/10/08 01:52:53;;;;;;;0.00;0.00;;;;;;;11.37;84.00;99561.72;4917333;29;20035;-90
2021/10/08 01:55:19;;;;;;;0.10;0.10;;;;;;;11.35;84.51;99561.22;4919021;29;20035;-83
2021/10/08 01:57:45;;;;;;;0.00;0.00;;;;;;;11.38;84.68;99555.31;4918087;29;20032;-81
2021/10/08 02:00:11;;;;;;;0.00;0.00;;;;;;;11.39;84.50;99561.47;4917250;29;20035;-83
2021/10/08 02:02:36;;;;;;;0.00;0.00;;;;;;;11.40;84.60;99564.94;4917288;29;20139;-90
2021/10/08 02:05:02;;;;;;;0.00;0.00;;;;;;;11.40;84.71;99559.59;4917093;29;20028;-87
2021/10/08 02:07:27;;;;;;;2.30;2.17;;;;;;;11.40;84.77;99562.28;4917025;29;20031;-87
2021/10/08 02:09:53;;;;;;;0.00;0.00;;;;;;;11.40;85.32;99557.72;4916948;29;20031;-87
2021/10/08 02:12:18;;;;;;;0.00;0.00;;;;;;;11.36;84.97;99554.78;4916980;29;20475;-88
2021/10/08 02:14:43;;;;;;;0.70;0.70;;;;;;;11.34;85.75;99548.09;4916618;29;20042;-78
2021/10/08 02:17:09;;;;;;;0.00;0.00;;;;;;;11.32;85.48;99542.19;4917108;29;20467;-84
2021/10/08 02:19:34;;;;;;;0.00;0.00;;;;;;;11.30;86.00;99545.16;4916939;29;20031;-83
2021/10/08 02:22:02;;;;;;;0.10;0.10;;;;;;;11.29;86.14;99551.56;4916967;29;20028;-77
2021/10/08 02:24:28;;;;;;;0.00;0.00;;;;;;;11.28;86.52;99547.28;4934007;29;20034;-77
2021/10/08 02:26:54;;;;;;;0.00;0.00;;;;;;;11.27;86.39;99536.84;4916931;29;20024;-80
2021/10/08 02:29:19;;;;;;;0.52;0.22;;;;;;;11.23;86.91;99538.44;4925952;29;20032;-80
2021/10/08 02:31:45;;;;;;;0.00;0.00;;;;;;;11.23;87.79;99536.59;4916817;29;20043;-80
2021/10/08 02:34:10;;;;;;;0.00;0.00;;;;;;;11.21;87.41;99536.81;4916752;29;20090;-86
2021/10/08 02:36:36;;;;;;;0.00;0.00;;;;;;;11.20;87.73;99531.75;4916798;29;20172;-89
2021/10/08 02:39:01;;;;;;;0.30;0.30;;;;;;;11.17;87.83;99534.97;4918905;29;20474;-89
2021/10/08 02:41:27;;;;;;;0.00;0.00;;;;;;;11.16;87.88;99533.38;4920957;29;20035;-91
2021/10/08 02:43:52;;;;;;;0.25;0.25;;;;;;;11.15;87.83;99529.88;4921055;29;20083;-91
2021/10/08 02:46:18;;;;;;;0.00;0.00;;;;;;;11.10;87.87;99529.88;4920448;29;20475;-89
2021/10/08 02:48:43;;;;;;;0.00;0.00;;;;;;;11.11;88.00;99544.88;4920610;29;20483;-91
2021/10/08 02:51:09;;;;;;;0.55;0.47;;;;;;;11.11;88.46;99544.88;4920412;29;20031;-91
2021/10/08 02:53:34;;;;;;;0.00;0.00;;;;;;;11.10;88.39;99547.81;4920986;29;20139;-89
2021/10/08 02:56:00;;;;;;;0.00;0.00;;;;;;;11.10;88.76;99542.47;4920741;29;20410;-90
2021/10/08 02:58:26;;;;;;;0.00;0.00;;;;;;;11.08;88.45;99537.38;4920138;29;20055;-92
2021/10/08 03:00:51;;;;;;;0.00;0.00;;;;;;;11.04;88.92;99530.94;4952606;29;20418;-91
2021/10/08 03:03:17;;;;;;;0.00;0.00;;;;;;;11.05;88.50;99530.66;4920393;29;20058;-91
2021/10/08 03:05:43;;;;;;;0.00;0.00;;;;;;;11.03;88.58;99535.50;4920331;29;20086;-78
2021/10/08 03:08:08;;;;;;;0.10;0.10;;;;;;;11.03;89.18;99543.53;4919856;29;20043;-77
2021/10/08 03:10:34;;;;;;;0.08;0.08;;;;;;;11.02;89.14;99536.56;4920167;29;20023;-76
2021/10/08 03:13:00;;;;;;;0.00;0.00;;;;;;;11.05;89.40;99535.22;4936774;29;20044;-76
2021/10/08 03:15:26;;;;;;;0.00;0.00;;;;;;;11.00;89.97;99536.03;4919609;29;20511;-77
2021/10/08 03:17:52;;;;;;;0.00;0.00;;;;;;;11.03;89.82;99540.84;4936968;29;20376;-77
2021/10/08 03:20:17;;;;;;;0.00;0.00;;;;;;;11.01;90.53;99543.00;4936679;29;20048;-79
2021/10/08 03:22:43;;;;;;;0.03;0.03;;;;;;;10.99;90.39;99541.66;4919774;29;20611;-78
2021/10/08 03:25:09;;;;;;;0.00;0.00;;;;;;;10.98;90.36;99562.25;4919448;29;20047;-79
2021/10/08 03:27:39;;;;;;;0.20;0.20;;;;;;;10.96;90.70;99551.03;4919852;29;20028;-80
2021/10/08 03:30:08;;;;;;;0.00;0.00;;;;;;;11.00;91.27;99546.72;4919479;29;20032;-80
2021/10/08 03:32:33;;;;;;;0.00;0.00;;;;;;;10.99;90.88;99541.66;4919803;29;20626;-77
2021/10/08 03:34:59;;;;;;;0.08;0.08;;;;;;;10.99;90.22;99536.31;4936600;29;20054;-77
2021/10/08 03:37:32;;;;;;;0.00;0.00;;;;;;;10.98;90.39;99540.84;4919381;29;20028;-76
2021/10/08 03:39:58;;;;;;;0.00;0.00;;;;;;;11.01;90.42;99551.03;4936488;29;20074;-78
2021/10/08 03:42:23;;;;;;;0.22;0.22;;;;;;;11.02;90.16;99557.97;4936740;29;20449;-78
2021/10/08 03:44:58;;;;;;;0.00;0.00;;;;;;;11.03;90.34;99550.75;4919538;29;20574;-80
2021/10/08 03:47:29;;;;;;;0.10;0.10;;;;;;;11.07;89.81;99562.53;4916033;29;20036;-81
2021/10/08 03:49:56;;;;;;;0.00;0.00;;;;;;;11.08;89.76;99566.00;4916868;29;20060;-80
2021/10/08 03:52:21;;;;;;;0.00;0.00;;;;;;;11.10;89.75;99569.22;4915826;29;20024;-79
2021/10/08 03:54:47;;;;;;;0.00;0.00;;;;;;;11.12;89.36;99572.44;4919201;29;20047;-79
2021/10/08 03:57:12;;;;;;;0.00;0.00;;;;;;;11.14;89.32;99570.31;4918795;29;20566;-78
2021/10/08 03:59:38;;;;;;;0.05;0.05;;;;;;;11.13;88.74;99564.16;4919445;29;20407;-78
2021/10/08 04:02:03;;;;;;;0.70;0.45;;;;;;;11.13;89.23;99566.00;4936076;29;20114;-78
2021/10/08 04:04:28;;;;;;;0.00;0.00;;;;;;;11.17;89.02;99569.78;4935921;29;20502;-78
2021/10/08 04:06:54;;;;;;;0.00;0.00;;;;;;;11.15;89.14;99567.34;4918885;29;20086;-77
2021/10/08 04:09:19;;;;;;;0.10;0.10;;;;;;;11.17;88.79;99562.53;4935912;29;20523;-78
2021/10/08 04:11:45;;;;;;;0.00;0.00;;;;;;;11.19;89.07;99570.28;4936405;29;20031;-78
2021/10/08 04:14:10;;;;;;;0.00;0.00;;;;;;;11.21;88.85;99557.47;4936117;29;20468;-78
2021/10/08 04:16:36;;;;;;;0.00;0.00;;;;;;;11.17;88.99;99554.50;4918331;29;20052;-78
2021/10/08 04:19:06;;;;;;;0.20;0.20;;;;;;;11.15;89.05;99548.59;4936001;29;20471;-78
2021/10/08 04:21:31;;;;;;;0.00;0.00;;;;;;;11.20;88.81;99555.84;4918904;29;20451;-77
2021/10/08 04:23:57;;;;;;;0.00;0.00;;;;;;;11.16;88.45;99557.47;4935792;29;20062;-77
2021/10/08 04:26:22;;;;;;;0.00;0.00;;;;;;;11.10;88.60;99543.25;4918096;29;20036;-77
2021/10/08 04:28:47;;;;;;;0.00;0.00;;;;;;;11.11;89.30;99544.06;4935081;29;20407;-75
2021/10/08 04:31:13;;;;;;;0.52;0.52;;;;;;;11.12;89.26;99542.97;4935166;29;20027;-79
2021/10/08 04:33:39;;;;;;;0.00;0.00;;;;;;;11.12;88.71;99556.38;4935652;29;20058;-77
2021/10/08 04:36:04;;;;;;;0.20;0.20;;;;;;;11.14;88.82;99556.91;4934110;29;20036;-77
2021/10/08 04:38:30;;;;;;;0.00;0.00;;;;;;;11.13;88.96;99549.94;4917556;29;20028;-76
2021/10/08 04:40:56;;;;;;;0.63;0.63;;;;;;;11.11;88.44;99555.56;4935364;29;20040;-75
2021/10/08 04:43:22;;;;;;;0.00;0.00;;;;;;;11.11;88.41;99555.56;4917907;29;20074;-76
2021/10/08 04:45:47;;;;;;;0.03;0.03;;;;;;;11.09;88.16;99568.41;4935365;29;20411;-76
2021/10/08 04:48:13;;;;;;;0.40;0.40;;;;;;;11.10;88.16;99574.59;4935222;29;20031;-76
2021/10/08 04:50:38;;;;;;;0.00;0.00;;;;;;;11.10;88.07;99563.88;4918198;29;20142;-76
2021/10/08 04:53:13;;;;;;;0.20;0.20;;;;;;;11.10;87.93;99577.25;4934929;29;20028;-76
2021/10/08 04:55:39;;;;;;;0.10;0.10;;;;;;;11.07;87.62;99580.47;4934827;29;20036;-76
2021/10/08 04:58:04;;;;;;;0.00;0.00;;;;;;;11.09;87.60;99581.78;4935515;29;20150;-76
2021/10/08 05:00:29;;;;;;;1.80;0.43;;;;;;;11.07;87.37;99585.81;4935157;29;20040;-76
2021/10/08 05:02:55;;;;;;;0.10;0.10;;;;;;;11.07;87.10;99573.25;4934310;29;20187;-76
2021/10/08 05:05:20;;;;;;;0.05;0.03;;;;;;;11.06;86.74;99560.94;4917800;29;20023;-76
2021/10/08 05:07:46;;;;;;;0.43;0.43;;;;;;;11.04;86.61;99561.19;4934777;29;20111;-76
2021/10/08 05:10:11;;;;;;;0.10;0.10;;;;;;;11.02;86.03;99565.19;4917416;29;20039;-76
2021/10/08 05:12:36;;;;;;;14.27;0.98;;;;;;;10.98;86.40;99558.78;4935157;29;20027;-77
2021/10/08 05:15:03;;;;;;;0.00;0.00;;;;;;;10.98;86.10;99556.88;4934565;29;20048;-77
2021/10/08 05:17:28;;;;;;;0.00;0.00;;;;;;;10.99;85.84;99573.78;4934542;29;20055;-76
2021/10/08 05:19:53;;;;;;;0.10;0.10;;;;;;;11.00;85.37;99557.44;4934832;29;20071;-77
2021/10/08 05:22:19;;;;;;;0.00;0.00;;;;;;;10.99;85.39;99566.53;4934190;29;20032;-77
2021/10/08 05:24:44;;;;;;;1.02;1.02;;;;;;;10.95;85.70;99570.81;4935066;29;20039;-77
2021/10/08 05:27:10;;;;;;;0.35;0.35;;;;;;;11.00;85.33;99583.41;4934691;29;20027;-77
2021/10/08 05:29:35;;;;;;;0.10;0.10;;;;;;;10.93;84.98;99593.56;4934326;29;20028;-77
2021/10/08 05:32:01;;;;;;;0.00;0.00;;;;;;;10.94;85.04;99587.16;4934264;29;20115;-77
2021/10/08 05:34:26;;;;;;;0.00;0.00;;;;;;;10.93;85.04;99582.84;4934100;29;20028;-77
2021/10/08 05:36:51;;;;;;;0.00;0.00;;;;;;;10.94;85.37;99587.94;4934084;29;20023;-77
2021/10/08 05:39:17;;;;;;;0.00;0.00;;;;;;;10.92;84.65;99594.63;4934510;29;20043;-77
2021/10/08 05:41:43;;;;;;;0.38;0.38;;;;;;;10.96;84.91;99583.13;4934471;29;20064;-77
2021/10/08 05:44:09;;;;;;;0.00;0.00;;;;;;;10.95;85.11;99594.09;4934720;29;20040;-77
2021/10/08 05:46:34;;;;;;;0.00;0.00;;;;;;;10.97;85.13;99592.75;4934197;29;20028;-77
2021/10/08 05:49:00;;;;;;;0.10;0.10;;;;;;;10.91;84.19;99588.44;4934288;29;20491;-77
2021/10/08 05:51:25;;;;;;;0.00;0.00;;;;;;;10.91;84.68;99575.06;4934039;29;20133;-77
2021/10/08 05:53:51;;;;;;;0.00;0.00;;;;;;;10.94;84.42;99579.91;4934188;29;20369;-77
2021/10/08 05:56:17;;;;;;;0.05;0.05;;;;;;;10.93;84.58;99578.28;4934042;29;20035;-77
2021/10/08 05:58:42;;;;;;;0.30;0.22;;;;;;;10.97;84.37;99582.03;4933932;29;20070;-77
2021/10/08 06:01:08;;;;;;;0.22;0.22;;;;;;;10.95;84.48;99578.84;4934361;29;20039;-77
2021/10/08 06:03:33;;;;;;;3.63;2.13;;;;;;;10.96;84.19;99598.38;4916861;29;20403;-77
2021/10/08 06:05:58;;;;;;;0.00;0.00;;;;;;;10.94;84.32;99593.28;4917043;29;20071;-77
2021/10/08 06:08:24;;;;;;;0.00;0.00;;;;;;;10.98;84.00;99605.06;4933862;29;20027;-77
2021/10/08 06:10:49;;;;;;;0.00;0.00;;;;;;;10.96;83.55;99609.91;4934138;29;20106;-77
2021/10/08 06:13:15;;;;;;;1.13;0.55;;;;;;;10.94;83.92;99611.22;4933210;29;20031;-77
2021/10/08 06:15:40;;;;;;;0.00;0.00;;;;;;;10.98;83.92;99615.78;4916485;29;20054;-77
2021/10/08 06:18:06;;;;;;;0.20;0.20;;;;;;;10.96;83.63;99619.78;4934075;29;20178;-77
2021/10/08 06:20:33;;;;;;;0.00;0.00;;;;;;;10.92;84.05;99618.72;4916668;29;20036;-77
2021/10/08 06:22:59;;;;;;;0.45;0.45;;;;;;;10.96;84.22;99625.97;4933666;29;20039;-77
2021/10/08 06:25:24;;;;;;;0.00;0.00;;;;;;;10.91;83.20;99625.91;4933889;29;20039;-77
2021/10/08 06:27:53;;;;;;;0.00;0.00;;;;;;;10.93;83.89;99633.69;4933949;29;20031;-77
2021/10/08 06:30:21;;;;;;;0.05;0.05;;;;;;;10.89;83.53;99638.78;4918417;29;20411;-77
2021/10/08 06:32:47;;;;;;;0.15;0.15;;;;;;;10.88;83.85;99623.78;4916760;29;20036;-77
2021/10/08 06:35:12;;;;;;;0.35;0.35;;;;;;;10.88;83.07;99616.56;4933610;29;20376;-77
2021/10/08 06:37:38;;;;;;;0.00;0.00;;;;;;;10.89;83.93;99612.03;4933681;29;20030;-77
2021/10/08 06:40:04;;;;;;;0.10;0.10;;;;;;;10.92;82.85;99616.03;4933740;29;20034;-77
2021/10/08 06:42:30;;;;;;;0.08;0.08;;;;;;;10.87;83.32;99614.94;4933830;29;20024;-77
2021/10/08 06:44:57;;;;;;;0.00;0.00;;;;;;;10.91;83.22;99609.88;4916589;29;20028;-77
2021/10/08 06:47:23;;;;;;;0.00;0.00;;;;;;;10.88;83.19;99597.81;4933343;29;20034;-77
2021/10/08 06:49:49;;;;;;;0.43;0.43;;;;;;;10.84;83.41;99604.78;4933246;29;20036;-77
2021/10/08 06:52:14;;;;;;;0.00;0.00;;;;;;;10.82;83.37;99579.34;4933456;29;20023;-78
2021/10/08 06:54:40;;;;;;;0.00;0.00;;;;;;;10.82;83.81;99585.50;4933552;29;20028;-77
2021/10/08 06:57:06;;;;;;;0.00;0.00;;;;;;;10.80;83.40;99592.19;4933656;29;20035;-77
2021/10/08 06:59:31;;;;;;;0.10;0.10;;;;;;;10.80;83.75;99590.31;4916275;29;20028;-77
2021/10/08 07:01:57;;;;;;;0.10;0.10;;;;;;;10.76;84.32;99589.22;4933359;29;20531;-77
2021/10/08 07:04:22;;;;;;;0.00;0.00;;;;;;;10.74;84.26;99588.69;4933311;29;20094;-76
2021/10/08 07:06:48;;;;;;;0.20;0.20;;;;;;;10.76;84.11;99580.41;4933752;29;20424;-77
2021/10/08 07:09:13;;;;;;;0.20;0.20;;;;;;;10.70;84.24;99588.41;4933141;29;20027;-77
2021/10/08 07:11:39;;;;;;;0.90;0.90;;;;;;;10.75;84.35;99602.88;4933851;29;20054;-77
2021/10/08 07:14:04;;;;;;;0.00;0.00;;;;;;;10.75;84.30;99605.56;4916096;29;20035;-77
2021/10/08 07:16:30;;;;;;;0.10;0.10;;;;;;;10.79;83.99;99614.66;4933189;29;20065;-77
2021/10/08 07:18:58;;;;;;;3.60;3.30;;;;;;;10.79;83.73;99623.50;4933434;29;20102;-77
2021/10/08 07:21:24;;;;;;;0.00;0.00;;;;;;;10.83;83.40;99629.91;4933163;29;20024;-76
2021/10/08 07:23:50;;;;;;;0.00;0.00;;;;;;;10.85;83.16;99640.34;4933252;29;20159;-76
2021/10/08 07:26:18;;;;;;;0.20;0.20;;;;;;;10.85;83.03;99630.47;4935760;29;20036;-76
2021/10/08 07:28:44;;;;;;;0.52;0.52;;;;;;;10.85;83.18;99635.81;4936895;29;20027;-76
2021/10/08 07:31:10;;;;;;;1.65;0.85;;;;;;;10.85;83.15;99632.31;4936530;29;20036;-76
2021/10/08 07:33:36;;;;;;;0.15;0.15;;;;;;;10.82;82.83;99622.16;4936335;29;20061;-76
2021/10/08 07:36:03;;;;;;;0.40;0.40;;;;;;;10.83;82.40;99624.56;4936692;29;20034;-76
2021/10/08 07:38:28;;;;;;;0.65;0.65;;;;;;;10.84;82.40;99607.44;4919403;29;20024;-76
2021/10/08 07:40:54;;;;;;;0.10;0.10;;;;;;;10.88;82.65;99621.91;4936895;29;20031;-76
2021/10/08 07:43:19;;;;;;;0.10;0.10;;;;;;;10.84;82.33;99617.34;4919314;29;20059;-76
2021/10/08 07:45:45;;;;;;;0.40;0.40;;;;;;;10.85;82.49;99608.25;4919525;29;20034;-76
2021/10/08 07:48:10;;;;;;;2.72;0.75;;;;;;;10.88;81.96;99619.22;4936545;29;20107;-77
2021/10/08 07:50:35;;;;;;;0.45;0.45;;;;;;;10.85;82.28;99608.25;4935826;29;20035;-76
2021/10/08 07:53:01;;;;;;;0.10;0.10;;;;;;;10.81;82.54;99626.69;4936188;29;20027;-76
2021/10/08 07:55:26;;;;;;;1.10;1.00;;;;;;;10.81;82.77;99599.16;4935938;29;20028;-76
2021/10/08 07:57:52;;;;;;;0.05;0.05;;;;;;;10.81;83.27;99596.47;4936389;29;20123;-76
2021/10/08 08:00:17;;;;;;;0.00;0.00;;;;;;;10.82;83.90;99611.47;4936152;29;20067;-76
2021/10/08 08:02:43;;;;;;;0.10;0.10;;;;;;;10.79;83.56;99614.66;4936356;29;20034;-76
2021/10/08 08:05:10;;;;;;;0.05;0.05;;;;;;;10.79;84.08;99612.78;4936580;29;20043;-76
2021/10/08 08:07:35;;;;;;;0.08;0.08;;;;;;;10.80;84.40;99609.06;4935718;29;20028;-76
2021/10/08 08:10:01;;;;;;;0.10;0.10;;;;;;;10.77;84.54;99609.56;4935721;29;20038;-76
2021/10/08 08:12:26;;;;;;;0.10;0.10;;;;;;;10.78;85.15;99610.38;4935906;29;20101;-76
2021/10/08 08:14:52;;;;;;;0.10;0.10;;;;;;;10.77;85.42;99614.13;4935829;29;20036;-76
2021/10/08 08:17:19;;;;;;;0.30;0.30;;;;;;;10.77;85.43;99603.44;4935741;29;20035;-76
2021/10/08 08:19:44;;;;;;;0.20;0.20;;;;;;;10.77;85.82;99608.78;4935797;29;20372;-76
2021/10/08 08:22:10;;;;;;;0.03;0.03;;;;;;;10.78;86.58;99610.38;4935644;29;20047;-76
2021/10/08 08:24:36;;;;;;;0.20;0.20;;;;;;;10.73;85.92;99592.44;4918689;29;20043;-76
2021/10/08 08:27:02;;;;;;;0.10;0.10;;;;;;;10.72;86.27;99593.50;4927764;29;20155;-76
2021/10/08 08:29:27;;;;;;;0.00;0.00;;;;;;;10.72;86.75;99590.84;4935565;29;20066;-75
2021/10/08 08:31:52;;;;;;;1.30;0.25;;;;;;;10.73;86.42;99587.88;4935768;29;20105;-77
2021/10/08 08:34:18;;;;;;;0.10;0.10;;;;;;;10.70;86.52;99583.06;4935421;29;20033;-76
2021/10/08 08:36:43;;;;;;;0.10;0.10;;;;;;;10.70;86.36;99598.31;4935769;29;20035;-76
2021/10/08 08:39:10;;;;;;;0.40;0.40;;;;;;;10.72;87.23;99596.19;4935915;29;20153;-76
2021/10/08 08:41:37;;;;;;;0.00;0.00;;;;;;;10.75;86.76;99605.56;4935443;29;20024;-76
2021/10/08 08:44:03;;;;;;;0.03;0.03;;;;;;;10.73;87.20;99593.25;4918421;29;20499;-76
2021/10/08 08:46:30;;;;;;;2.40;1.75;;;;;;;10.75;86.69;99616.25;4935272;29;20031;-76
2021/10/08 08:48:56;;;;;;;0.10;0.10;;;;;;;10.75;86.98;99595.63;4935498;29;20027;-76
2021/10/08 08:51:25;;;;;;;0.70;0.70;;;;;;;10.75;87.17;99589.50;4934890;29;20506;-76
2021/10/08 08:54:01;;;;;;;0.00;0.00;;;;;;;10.81;86.94;99599.94;4918122;29;20031;-76
2021/10/08 08:56:27;;;;;;;3.20;0.47;;;;;;;10.78;86.35;99605.84;4935098;29;20020;-76
2021/10/08 08:59:08;;;;;;;0.00;0.00;;;;;;;10.82;86.77;99598.88;4934941;29;20083;-76
2021/10/08 09:01:35;;;;;;;0.35;0.32;;;;;;;10.84;87.44;99579.88;4934939;29;20055;-76
2021/10/08 09:04:08;;;;;;;3.60;1.75;;;;;;;10.86;87.57;99575.06;4935069;29;20071;-76
2021/10/08 09:06:39;;;;;;;0.20;0.20;;;;;;;10.90;87.21;99586.88;4934935;29;20047;-77
2021/10/08 09:09:20;;;;;;;0.20;0.20;;;;;;;10.91;86.87;99591.13;4935027;29;20522;-76
2021/10/08 09:11:48;;;;;;;0.00;0.00;;;;;;;10.95;87.83;99581.53;4934747;29;20514;-77
2021/10/08 09:14:25;;;;;;;1.08;1.08;;;;;;;10.91;86.46;99583.09;4934866;29;20039;-77
2021/10/08 09:17:10;;;;;;;0.60;0.55;;;;;;;10.98;86.66;99588.22;4932414;29;20051;-77
2021/10/08 09:20:02;;;;;;;0.10;0.10;;;;;;;11.03;86.63;99598.91;4934798;29;20051;-77
2021/10/08 09:22:30;;;;;;;0.00;0.00;;;;;;;11.04;86.71;99590.63;4934543;29;20035;-76
2021/10/08 09:25:12;;;;;;;0.08;0.08;;;;;;;11.11;86.84;99595.72;4917700;29;20028;-75
2021/10/08 09:27:40;;;;;;;0.50;0.50;;;;;;;11.12;87.22;99575.09;4934792;29;20055;-77
2021/10/08 09:30:07;;;;;;;0.10;0.10;;;;;;;11.15;87.17;99577.25;4934650;29;20038;-77
2021/10/08 09:32:54;;;;;;;0.47;0.47;;;;;;;11.25;87.15;99581.81;4934359;29;20160;-77
2021/10/08 09:35:25;;;;;;;0.17;0.17;;;;;;;11.28;86.91;99587.44;4934877;29;20466;-76
2021/10/08 09:38:05;;;;;;;0.10;0.10;;;;;;;11.31;87.05;99597.59;4934309;29;20024;-75
2021/10/08 09:40:47;;;;;;;0.05;0.05;;;;;;;11.32;86.98;99598.44;4933984;29;20031;-75
2021/10/08 09:43:25;;;;;;;0.00;0.00;;;;;;;11.32;87.15;99596.53;4917308;29;20459;-76
2021/10/08 09:46:02;;;;;;;0.00;0.00;;;;;;;11.38;87.55;99598.16;4934462;29;20023;-75
2021/10/08 09:48:30;;;;;;;0.30;0.30;;;;;;;11.39;86.97;99598.97;4933598;29;20028;-75
2021/10/08 09:51:02;;;;;;;0.70;0.70;;;;;;;11.42;86.86;99601.09;4917055;29;20481;-76
2021/10/08 09:53:29;;;;;;;0.20;0.20;;;;;;;11.40;86.35;99611.28;4934142;29;20038;-75
2021/10/08 09:55:54;;;;;;;0.00;0.00;;;;;;;11.40;86.33;99611.28;4934049;29;20513;-76
2021/10/08 09:58:21;;;;;;;0.57;0.57;;;;;;;11.38;86.39;99600.81;4934206;29;20024;-75
2021/10/08 10:01:01;;;;;;;0.55;0.50;;;;;;;11.40;86.09;99605.94;4933922;29;20035;-75
2021/10/08 10:03:27;;;;;;;4.03;1.75;;;;;;;11.40;86.87;99603.25;4916811;29;20035;-76
2021/10/08 10:05:54;;;;;;;0.03;0.03;;;;;;;11.40;87.26;99599.75;4917076;29;20403;-76
2021/10/08 10:08:19;;;;;;;0.00;0.00;;;;;;;11.35;86.23;99595.19;4933898;29;20063;-76
2021/10/08 10:10:46;;;;;;;0.10;0.10;;;;;;;11.38;86.97;99608.06;4933879;29;20066;-75
2021/10/08 10:13:12;;;;;;;0.00;0.00;;;;;;;11.41;87.01;99606.72;4933789;29;20399;-75
2021/10/08 10:15:46;;;;;;;0.00;0.00;;;;;;;11.42;86.94;99600.31;4933432;29;20044;-75
2021/10/08 10:18:16;;;;;;;0.00;0.00;;;;;;;11.44;87.76;99606.22;4916947;29;20028;-77
2021/10/08 10:20:48;;;;;;;0.05;0.05;;;;;;;11.45;87.39;99622.00;4933499;29;20506;-76
2021/10/08 10:23:16;;;;;;;0.08;0.08;;;;;;;11.47;87.42;99625.19;4933657;29;20019;-77
2021/10/08 10:25:42;;;;;;;0.30;0.30;;;;;;;11.46;87.26;99620.13;4933397;29;20408;-76
2021/10/08 10:28:09;;;;;;;0.95;0.88;;;;;;;11.51;86.88;99630.81;4933598;29;20443;-75
2021/10/08 10:30:34;;;;;;;0.13;0.13;;;;;;;11.51;87.10;99625.47;4933144;29;20035;-76
2021/10/08 10:33:01;;;;;;;0.00;0.00;;;;;;;11.56;87.33;99622.81;4933647;29;20452;-76
2021/10/08 10:35:37;;;;;;;0.32;0.32;;;;;;;11.59;86.83;99634.84;4933542;29;20031;-77
2021/10/08 10:38:35;;;;;;;0.10;0.10;;;;;;;11.61;86.90;99620.13;4916676;29;20459;-75
2021/10/08 10:41:09;;;;;;;0.10;0.10;;;;;;;11.63;86.71;99615.31;4933893;29;20024;-75
2021/10/08 10:43:35;;;;;;;0.95;0.90;;;;;;;11.65;86.65;99601.63;4933521;29;20024;-75
2021/10/08 10:46:21;;;;;;;0.10;0.10;;;;;;;11.65;86.28;99591.72;4933720;29;20024;-76
2021/10/08 10:52:03;;;;;;;0.05;0.05;;;;;;;11.60;86.30;99570.28;4924866;29;20034;-75
2021/10/08 10:54:34;;;;;;;0.70;0.70;;;;;;;11.56;86.71;99571.09;4933474;29;20027;-75
2021/10/08 10:57:11;;;;;;;0.52;0.52;;;;;;;11.51;86.66;99558.50;4933669;29;20031;-75
2021/10/08 10:59:38;;;;;;;0.25;0.25;;;;;;;11.49;87.68;99541.91;4935545;29;20095;-75
2021/10/08 11:04:30;;;;;;;0.30;0.30;;;;;;;11.45;88.00;99524.75;4937192;29;20067;-75
2021/10/08 11:07:07;;;;;;;0.10;0.10;;;;;;;11.40;88.04;99532.81;4937341;29;20035;-75
2021/10/08 11:09:33;;;;;;;0.00;0.00;;;;;;;11.40;87.30;99525.59;4936766;29;20034;-75
2021/10/08 11:12:33;;;;;;;0.10;0.10;;;;;;;11.38;87.57;99523.16;4937093;29;20078;-75
2021/10/08 11:15:17;;;;;;;0.00;0.00;;;;;;;11.35;87.76;99513.00;4936687;29;20129;-76
2021/10/08 11:17:55;;;;;;;1.08;1.08;;;;;;;11.37;88.25;99504.69;4936908;29;20043;-76
2021/10/08 11:20:30;;;;;;;;;;;;;;;11.37;88.45;99513.53;4956392;29;20083;-75
2021/10/08 11:22:57;;;;;;;0.10;0.10;;;;;;;11.37;88.38;99504.69;4956124;29;19934;-75
2021/10/08 11:25:23;;;;;;;1.42;1.33;;;;;;;11.43;88.96;99513.53;4938921;29;20042;-76
2021/10/08 11:27:49;;;;;;;0.03;0.03;;;;;;;11.41;89.40;99499.59;4955638;29;20031;-76
2021/10/08 11:30:16;;;;;;;0.10;0.10;;;;;;;11.44;89.43;99501.75;4955996;29;20027;-76
2021/10/08 11:32:48;;;;;;;0.10;0.10;;;;;;;11.46;90.35;99489.69;4955620;29;20043;-76
2021/10/08 11:35:19;;;;;;;0.10;0.10;;;;;;;11.45;90.13;99490.78;4955903;29;20031;-75
2021/10/08 11:37:48;;;;;;;0.63;0.63;;;;;;;11.46;89.66;99492.38;4955777;29;20031;-76
2021/10/08 11:40:29;;;;;;;0.08;0.08;;;;;;;11.46;89.49;99499.59;4955857;29;20030;-75